Terminal Aerodrome Forecast
Issued by NWS Charleston, WV

Current Version | Previous Version | Text Only | Print | Product List | Glossary Off
Versions: 1 2 3 4 5 6 7 8 9 10 11 12 13 14 15 16 17 18 19 20 21 22 23 24 25 26

600
FTUS41 KRLX 242343
TAFEKN
TAF
KEKN 242343Z 2500/2524 14011G17KT P6SM OVC027
     FM250400 13008KT 5SM SHRA OVC027
     FM250800 15004KT 2SM SHRA OVC006
     FM251300 23004KT P6SM SHRA BKN011
     FM251600 24006KT P6SM SHRA BKN045=

USA.gov is the U.S. government's official web portal to all federal, state and local government web resources and services.